Time;durP1;ratioP1;P1;durP2;ratioP2;P2;SDS_P1;SDS_P2;PMS_P1;PMS_P2;Temp;Humidity;BMP_temperature;BMP_pressure;BME280_temperature;BME280_humidity;BME280_pressure;Samples;Min_cycle;Max_cycle;Signal;HPM_P1;HPM_P2
2023/05/15 00:01:22;;;;;;;;;;;;;;;9.45;79.26;101379.19;5042879;28;20116;-74
2023/05/15 00:03:47;;;;;;;;;;;;;;;9.42;79.21;101376.19;5048248;28;20019;-74
2023/05/15 00:06:13;;;;;;;;;;;;;;;9.36;79.48;101367.28;5054345;28;20391;-74
2023/05/15 00:08:39;;;;;;;;;;;;;;;9.47;79.92;101368.22;5056101;28;20016;-74
2023/05/15 00:11:04;;;;;;;;;;;;;;;9.53;80.00;101362.72;5057455;28;20048;-73
2023/05/15 00:13:30;;;;;;;;;;;;;;;9.51;80.28;101358.66;5056011;28;19962;-74
2023/05/15 00:15:55;;;;;;;;;;;;;;;9.61;80.18;101352.63;5041592;28;20400;-73
2023/05/15 00:18:21;;;;;;;;;;;;;;;9.67;80.55;101355.13;5037475;28;19939;-72
2023/05/15 00:20:47;;;;;;;;;;;;;;;9.70;80.50;101351.97;5028033;28;19945;-73
2023/05/15 00:23:13;;;;;;;;;;;;;;;9.85;80.26;101346.00;5055713;28;20607;-73
2023/05/15 00:25:39;;;;;;;;;;;;;;;10.03;79.34;101347.53;5053842;28;19936;-73
2023/05/15 00:28:04;;;;;;;;;;;;;;;10.05;78.69;101340.88;5049056;28;20018;-73
2023/05/15 00:30:30;;;;;;;;;;;;;;;10.04;78.76;101349.97;5049170;28;19940;-73
2023/05/15 00:32:56;;;;;;;;;;;;;;;10.03;78.84;101337.66;5040524;28;20014;-73
2023/05/15 00:35:21;;;;;;;;;;;;;;;9.94;78.97;101339.13;5056348;28;19945;-73
2023/05/15 00:37:47;;;;;;;;;;;;;;;9.96;79.41;101338.91;5033311;28;19941;-72
2023/05/15 00:40:21;;;;;;;;;;;;;;;9.86;79.34;101334.22;5055558;28;19938;-73
2023/05/15 00:42:47;;;;;;;;;;;;;;;9.93;79.75;101328.69;5059558;28;19958;-72
2023/05/15 00:45:14;;;;;;;;;;;;;;;9.80;79.56;101330.69;5039683;28;19936;-73
2023/05/15 00:47:41;;;;;;;;;;;;;;;9.78;79.42;101326.66;5053524;28;19963;-73
2023/05/15 00:50:10;;;;;;;;;;;;;;;9.76;79.64;101328.78;5056751;28;20916;-73
2023/05/15 00:52:36;;;;;;;;;;;;;;;9.75;80.01;101330.63;5041084;28;19955;-72
2023/05/15 00:55:02;;;;;;;;;;;;;;;9.74;79.75;101325.53;5042535;28;19945;-72
2023/05/15 00:57:29;;;;;;;;;;;;;;;9.76;80.08;101326.91;5041587;28;19932;-73
2023/05/15 00:59:56;;;;;;;;;;;;;;;9.81;80.30;101326.13;5055568;28;19940;-72
2023/05/15 01:02:23;;;;;;;;;;;;;;;9.83;79.71;101324.03;5056788;28;20670;-72
2023/05/15 01:04:49;;;;;;;;;;;;;;;9.85;79.81;101332.63;5056541;28;19974;-72
2023/05/15 01:07:14;;;;;;;;;;;;;;;9.97;79.22;101319.91;5036711;28;19965;-72
2023/05/15 01:09:44;;;;;;;;;;;;;;;9.94;79.41;101309.69;5039649;28;19938;-74
2023/05/15 01:12:10;;;;;;;;;;;;;;;9.95;78.97;101316.66;5033794;28;19953;-74
2023/05/15 01:14:36;;;;;;;;;;;;;;;9.95;79.29;101310.50;5052870;28;19944;-73
2023/05/15 01:17:01;;;;;;;;;;;;;;;10.00;79.70;101311.38;5036843;28;20036;-73
2023/05/15 01:19:27;;;;;;;;;;;;;;;9.96;79.45;101306.78;5050912;28;20024;-73
2023/05/15 01:21:56;;;;;;;;;;;;;;;10.03;79.65;101307.41;5033134;28;19943;-73
2023/05/15 01:24:42;;;;;;;;;;;;;;;10.13;79.24;101302.13;5052553;28;19938;-73
2023/05/15 01:27:27;;;;;;;;;;;;;;;10.12;78.87;101303.19;5051706;28;19934;-74
2023/05/15 01:30:13;;;;;;;;;;;;;;;10.02;79.65;101308.44;5035337;28;19989;-73
2023/05/15 01:32:53;;;;;;;;;;;;;;;9.96;79.10;101302.25;5038014;28;20496;-72
2023/05/15 01:35:21;;;;;;;;;;;;;;;9.90;79.07;101295.22;5053906;28;20637;-73
2023/05/15 01:37:50;;;;;;;;;;;;;;;9.86;79.13;101302.13;5051994;28;20026;-73
2023/05/15 01:40:18;;;;;;;;;;;;;;;9.87;78.93;101295.72;5022164;28;20314;-75
2023/05/15 01:42:50;;;;;;;;;;;;;;;9.85;79.23;101285.28;5052173;28;19953;-72
2023/05/15 01:45:16;;;;;;;;;;;;;;;9.81;79.05;101289.50;5041937;28;20400;-73
2023/05/15 01:47:46;;;;;;;;;;;;;;;9.77;79.26;101292.94;5053171;28;20338;-73
2023/05/15 01:50:13;;;;;;;;;;;;;;;9.70;79.06;101290.47;5052181;28;19962;-73
2023/05/15 01:52:42;;;;;;;;;;;;;;;9.62;79.37;101290.06;5058784;28;19957;-71
2023/05/15 01:55:08;;;;;;;;;;;;;;;9.58;79.63;101293.25;5072722;28;20010;-74
2023/05/15 01:57:34;;;;;;;;;;;;;;;9.56;79.59;101286.56;5049246;28;19939;-72
2023/05/15 02:00:01;;;;;;;;;;;;;;;9.55;79.72;101288.41;5060473;28;19978;-72
2023/05/15 02:02:27;;;;;;;;;;;;;;;9.49;80.20;101285.94;5038516;28;20735;-72
2023/05/15 02:04:55;;;;;;;;;;;;;;;9.40;79.96;101290.88;5058277;28;20022;-74
2023/05/15 02:07:20;;;;;;;;;;;;;;;9.42;80.63;101287.97;5054383;28;19991;-73
2023/05/15 02:09:47;;;;;;;;;;;;;;;9.47;80.88;101283.47;5052343;28;20664;-70
2023/05/15 02:12:12;;;;;;;;;;;;;;;9.37;81.22;101283.38;5070021;28;19983;-73
2023/05/15 02:14:39;;;;;;;;;;;;;;;9.32;81.55;101288.63;5057537;28;20464;-74
2023/05/15 02:17:05;;;;;;;;;;;;;;;9.16;81.41;101282.28;5060508;28;19937;-74
2023/05/15 02:19:31;;;;;;;;;;;;;;;9.02;81.44;101292.53;5059117;28;20416;-74
2023/05/15 02:22:04;;;;;;;;;;;;;;;9.00;81.89;101281.25;5048448;28;19957;-73
2023/05/15 02:24:29;;;;;;;;;;;;;;;8.89;81.85;101286.72;5041368;28;19980;-74
2023/05/15 02:27:03;;;;;;;;;;;;;;;8.79;82.04;101282.03;5042473;28;19983;-73
2023/05/15 02:29:32;;;;;;;;;;;;;;;8.72;81.87;101286.72;5070581;28;19942;-72
2023/05/15 02:32:01;;;;;;;;;;;;;;;8.61;82.51;101282.28;5056435;28;19936;-73
2023/05/15 02:34:58;;;;;;;;;;;;;;;8.53;82.96;101278.13;5053007;28;20071;-73
2023/05/15 02:37:27;;;;;;;;;;;;;;;8.50;83.98;101277.81;5048214;28;20053;-72
2023/05/15 02:39:54;;;;;;;;;;;;;;;8.44;83.75;101274.25;5042014;28;19933;-74
2023/05/15 02:42:20;;;;;;;;;;;;;;;8.53;83.73;101285.34;5059544;28;20003;-72
2023/05/15 02:44:47;;;;;;;;;;;;;;;8.50;84.34;101277.81;5057932;28;20074;-73
2023/05/15 02:47:13;;;;;;;;;;;;;;;8.46;84.04;101277.50;5041042;28;20371;-73
2023/05/15 02:49:39;;;;;;;;;;;;;;;8.44;83.83;101266.25;5061555;28;19948;-74
2023/05/15 02:52:05;;;;;;;;;;;;;;;8.40;84.21;101276.63;5043971;28;19952;-72
2023/05/15 02:54:30;;;;;;;;;;;;;;;8.37;84.40;101268.28;5059878;28;20009;-72
2023/05/15 02:56:56;;;;;;;;;;;;;;;8.32;84.45;101263.63;5047799;28;19938;-72
2023/05/15 02:59:22;;;;;;;;;;;;;;;8.35;84.83;101263.19;5046066;28;19936;-72
2023/05/15 03:01:47;;;;;;;;;;;;;;;8.37;84.69;101258.41;5041934;28;20018;-73
2023/05/15 03:04:13;;;;;;;;;;;;;;;8.23;84.97;101257.06;5043468;28;20557;-73
2023/05/15 03:06:39;;;;;;;;;;;;;;;8.16;85.01;101259.91;5039066;28;20055;-74
2023/05/15 03:09:04;;;;;;;;;;;;;;;8.15;85.13;101260.16;5042968;28;19955;-73
2023/05/15 03:11:30;;;;;;;;;;;;;;;8.13;85.18;101262.25;5060115;28;20384;-74
2023/05/15 03:13:55;;;;;;;;;;;;;;;8.12;85.31;101261.41;5054961;28;19951;-73
2023/05/15 03:16:21;;;;;;;;;;;;;;;8.09;85.95;101258.44;5041602;28;19941;-72
2023/05/15 03:18:47;;;;;;;;;;;;;;;8.00;85.75;101254.53;5056516;28;19948;-73
2023/05/15 03:21:12;;;;;;;;;;;;;;;7.98;85.93;101248.63;5059106;28;19931;-72
2023/05/15 03:23:38;;;;;;;;;;;;;;;8.01;85.91;101248.16;5041895;28;20015;-72
2023/05/15 03:26:04;;;;;;;;;;;;;;;8.01;86.02;101242.81;5057876;28;19933;-71
2023/05/15 03:28:29;;;;;;;;;;;;;;;7.99;86.02;101244.91;5059040;28;20077;-74
2023/05/15 03:30:55;;;;;;;;;;;;;;;7.99;86.29;101245.72;5059973;28;19987;-72
2023/05/15 03:33:20;;;;;;;;;;;;;;;7.93;85.96;101233.34;5045065;28;19952;-72
2023/05/15 03:35:46;;;;;;;;;;;;;;;7.88;86.21;101239.41;5060537;28;19947;-73
2023/05/15 03:38:13;;;;;;;;;;;;;;;7.84;86.46;101242.78;5072649;28;19939;-72
2023/05/15 03:40:39;;;;;;;;;;;;;;;7.80;86.79;101231.78;5057411;28;19968;-73
2023/05/15 03:43:05;;;;;;;;;;;;;;;7.82;87.08;101237.69;5062662;28;19996;-72
2023/05/15 03:45:32;;;;;;;;;;;;;;;7.84;86.66;101243.59;5056490;28;19989;-72
2023/05/15 03:47:57;;;;;;;;;;;;;;;7.90;87.24;101237.28;5060322;28;19956;-72
2023/05/15 03:50:23;;;;;;;;;;;;;;;7.92;86.75;101240.56;5062212;28;19938;-73
2023/05/15 03:52:49;;;;;;;;;;;;;;;7.95;86.97;101239.25;5047930;28;19948;-72
2023/05/15 03:55:15;;;;;;;;;;;;;;;7.98;86.76;101238.75;5057079;28;20422;-72
2023/05/15 03:57:40;;;;;;;;;;;;;;;7.94;86.70;101238.44;5048531;28;19995;-73
2023/05/15 04:00:09;;;;;;;;;;;;;;;7.98;87.55;101221.94;5047841;28;20402;-73
2023/05/15 04:02:39;;;;;;;;;;;;;;;7.97;87.70;101231.81;5060638;28;19964;-73
2023/05/15 04:05:05;;;;;;;;;;;;;;;8.01;87.08;101240.97;5060217;28;20035;-73
2023/05/15 04:07:32;;;;;;;;;;;;;;;8.00;86.92;101222.53;5042588;28;19969;-74
2023/05/15 04:10:00;;;;;;;;;;;;;;;8.00;87.17;101222.53;5046196;28;20287;-73
2023/05/15 04:12:33;;;;;;;;;;;;;;;8.07;87.20;101236.53;5058693;28;20032;-73
2023/05/15 04:15:11;;;;;;;;;;;;;;;8.25;87.62;101238.16;5045343;28;19928;-73
2023/05/15 04:17:37;;;;;;;;;;;;;;;8.26;87.24;101235.22;5055310;28;19936;-71
2023/05/15 04:20:04;;;;;;;;;;;;;;;8.40;87.21;101235.75;5057710;28;19943;-74
2023/05/15 04:22:30;;;;;;;;;;;;;;;8.37;87.11;101225.56;5075101;28;21719;-74
2023/05/15 04:24:56;;;;;;;;;;;;;;;8.42;87.43;101231.81;5055765;28;19939;-73
2023/05/15 04:27:21;;;;;;;;;;;;;;;8.45;87.34;101227.84;5043013;28;19961;-72
2023/05/15 04:29:47;;;;;;;;;;;;;;;8.55;87.88;101229.88;5058957;28;20381;-73
2023/05/15 04:32:12;;;;;;;;;;;;;;;8.57;87.97;101235.75;5053100;28;19953;-74
2023/05/15 04:34:39;;;;;;;;;;;;;;;8.65;87.58;101228.13;5055867;28;20432;-73
2023/05/15 04:37:05;;;;;;;;;;;;;;;8.76;87.79;101223.75;5062040;28;19931;-74
2023/05/15 04:39:31;;;;;;;;;;;;;;;8.83;87.59;101224.41;5045520;28;19947;-73
2023/05/15 04:41:57;;;;;;;;;;;;;;;8.90;87.30;101218.88;5060301;28;19937;-74
2023/05/15 04:44:22;;;;;;;;;;;;;;;9.00;87.90;101209.13;5056283;28;19941;-72
2023/05/15 04:46:48;;;;;;;;;;;;;;;9.09;87.66;101211.38;5053521;28;19936;-71
2023/05/15 04:49:13;;;;;;;;;;;;;;;9.16;87.81;101210.16;5053715;28;20013;-73
2023/05/15 04:51:42;;;;;;;;;;;;;;;9.22;87.60;101206.47;5052939;28;19939;-74
2023/05/15 04:54:07;;;;;;;;;;;;;;;9.31;86.91;101212.19;5044197;28;19950;-73
2023/05/15 04:56:33;;;;;;;;;;;;;;;9.45;86.77;101209.94;5060629;28;20389;-74
2023/05/15 04:58:58;;;;;;;;;;;;;;;9.55;87.54;101215.38;5056738;28;20378;-73
2023/05/15 05:01:24;;;;;;;;;;;;;;;9.73;85.70;101217.72;5039926;28;19942;-72
2023/05/15 05:03:50;;;;;;;;;;;;;;;9.89;85.65;101220.53;5057880;28;20039;-73
2023/05/15 05:06:16;;;;;;;;;;;;;;;9.99;85.20;101220.66;5050923;28;19952;-74
2023/05/15 05:08:41;;;;;;;;;;;;;;;10.12;83.93;101221.03;5056366;28;19950;-72
2023/05/15 05:11:07;;;;;;;;;;;;;;;10.23;83.83;101216.63;5059217;28;20401;-71
2023/05/15 05:13:33;;;;;;;;;;;;;;;10.42;82.69;101214.34;5062449;28;19957;-71
2023/05/15 05:15:58;;;;;;;;;;;;;;;10.51;83.59;101223.53;5044983;28;20359;-73
2023/05/15 05:18:26;;;;;;;;;;;;;;;10.70;83.56;101220.41;5059149;28;20499;-72
2023/05/15 05:21:02;;;;;;;;;;;;;;;11.05;79.91;101220.63;5057828;28;19935;-72
2023/05/15 05:23:28;;;;;;;;;;;;;;;11.23;78.74;101214.00;5039238;28;19979;-74
2023/05/15 05:25:53;;;;;;;;;;;;;;;11.26;79.76;101212.69;5060252;28;19936;-73
2023/05/15 05:28:19;;;;;;;;;;;;;;;11.57;78.32;101219.75;5057612;28;19955;-71
2023/05/15 05:30:45;;;;;;;;;;;;;;;11.71;77.84;101203.94;5055669;28;20417;-72
2023/05/15 05:33:10;;;;;;;;;;;;;;;11.80;77.90;101206.94;5040773;28;19949;-74
2023/05/15 05:35:36;;;;;;;;;;;;;;;11.87;78.67;101204.81;5038527;28;19932;-73
2023/05/15 05:38:02;;;;;;;;;;;;;;;11.93;77.87;101207.25;5055820;28;19935;-73
2023/05/15 05:40:30;;;;;;;;;;;;;;;12.10;76.56;101200.81;5055747;28;19929;-74
2023/05/15 05:42:59;;;;;;;;;;;;;;;12.20;75.17;101212.34;5061664;28;20052;-73
2023/05/15 05:45:25;;;;;;;;;;;;;;;12.34;75.42;101206.44;5059005;28;20423;-73
2023/05/15 05:47:50;;;;;;;;;;;;;;;12.55;73.92;101205.34;5057719;28;19982;-73
2023/05/15 05:50:16;;;;;;;;;;;;;;;12.65;74.07;101205.31;5060737;28;19978;-72
2023/05/15 05:52:42;;;;;;;;;;;;;;;12.82;74.29;101199.66;5065169;28;19950;-72
2023/05/15 05:55:07;;;;;;;;;;;;;;;13.04;72.04;101207.38;5059868;28;20034;-72
2023/05/15 05:57:33;;;;;;;;;;;;;;;13.13;70.37;101203.00;5064972;28;19947;-72
2023/05/15 05:59:59;;;;;;;;;;;;;;;13.42;70.37;101202.41;5061505;28;20012;-73
2023/05/15 06:02:24;;;;;;;;;;;;;;;13.55;69.62;101194.53;5062617;28;20403;-73
2023/05/15 06:04:50;;;;;;;;;;;;;;;13.56;69.35;101198.03;5060106;28;19938;-73
2023/05/15 06:07:16;;;;;;;;;;;;;;;13.74;68.79;101197.34;5046501;28;19937;-73
2023/05/15 06:09:41;;;;;;;;;;;;;;;13.95;68.92;101200.69;5063605;28;19935;-72
2023/05/15 06:12:07;;;;;;;;;;;;;;;14.03;68.56;101197.44;5048158;28;19957;-73
2023/05/15 06:14:33;;;;;;;;;;;;;;;14.33;69.00;101195.56;5065327;28;20008;-72
2023/05/15 06:16:59;;;;;;;;;;;;;;;14.42;68.17;101194.63;5065113;28;19973;-73
2023/05/15 06:19:24;;;;;;;;;;;;;;;14.53;66.88;101191.88;5050681;28;20406;-73
2023/05/15 06:21:50;;;;;;;;;;;;;;;14.64;66.27;101188.00;5062041;28;20353;-72
2023/05/15 06:24:15;;;;;;;;;;;;;;;14.89;67.37;101195.81;5060044;28;20610;-72
2023/05/15 06:26:41;;;;;;;;;;;;;;;15.00;65.21;101181.13;5062082;28;19930;-72
2023/05/15 06:29:07;;;;;;;;;;;;;;;15.12;64.25;101185.31;5056002;28;20043;-71
2023/05/15 06:31:32;;;;;;;;;;;;;;;15.20;63.35;101185.47;5060029;28;19943;-71
2023/05/15 06:33:57;;;;;;;;;;;;;;;15.47;61.43;101176.72;5055902;28;19955;-72
2023/05/15 06:36:23;;;;;;;;;;;;;;;15.77;64.87;101180.91;5055583;28;20020;-72
2023/05/15 06:38:49;;;;;;;;;;;;;;;15.78;63.18;101173.59;5060266;28;19978;-71
2023/05/15 06:41:14;;;;;;;;;;;;;;;15.91;59.53;101174.75;5062583;28;19935;-72
2023/05/15 06:43:40;;;;;;;;;;;;;;;16.24;63.65;101170.16;5045327;28;19959;-72
2023/05/15 06:46:05;;;;;;;;;;;;;;;16.24;63.25;101172.84;5046743;28;20390;-73
2023/05/15 06:48:31;;;;;;;;;;;;;;;16.37;59.83;101166.66;5059454;28;20410;-73
2023/05/15 06:50:56;;;;;;;;;;;;;;;16.64;59.80;101169.41;5057633;28;19937;-72
2023/05/15 06:53:22;;;;;;;;;;;;;;;16.65;56.61;101171.00;5065607;28;19953;-74
2023/05/15 06:55:47;;;;;;;;;;;;;;;16.68;55.07;101158.81;5030108;28;19939;-72
2023/05/15 06:58:13;;;;;;;;;;;;;;;16.83;56.66;101160.44;5059106;28;19968;-73
2023/05/15 07:00:41;;;;;;;;;;;;;;;16.90;57.85;101158.13;5060993;28;19933;-73
2023/05/15 07:03:06;;;;;;;;;;;;;;;17.21;58.27;101154.78;5064736;28;20034;-74
2023/05/15 07:05:32;;;;;;;;;;;;;;;17.24;56.36;101159.59;5074216;28;20458;-73
2023/05/15 07:07:58;;;;;;;;;;;;;;;17.65;53.20;101154.84;5057476;28;19982;-73
2023/05/15 07:10:23;;;;;;;;;;;;;;;17.22;53.03;101153.69;5055649;28;20741;-73
2023/05/15 07:12:48;;;;;;;;;;;;;;;17.49;52.53;101148.19;5064148;28;19959;-73
2023/05/15 07:15:16;;;;;;;;;;;;;;;17.94;53.62;101156.34;5062750;28;19932;-73
2023/05/15 07:17:41;;;;;;;;;;;;;;;17.66;53.03;101148.31;5044662;28;20052;-74
2023/05/15 07:20:07;;;;;;;;;;;;;;;17.68;52.81;101148.81;5058220;28;20498;-74
2023/05/15 07:22:33;;;;;;;;;;;;;;;17.91;54.06;101138.00;5042941;28;20433;-73
2023/05/15 07:24:58;;;;;;;;;;;;;;;17.98;50.25;101138.38;5055540;28;19937;-72
2023/05/15 07:27:24;;;;;;;;;;;;;;;18.24;52.61;101142.03;5062066;28;19958;-73
2023/05/15 07:29:49;;;;;;;;;;;;;;;18.19;49.31;101139.44;5046445;28;20017;-73
2023/05/15 07:32:18;;;;;;;;;;;;;;;18.39;51.16;101140.03;5045166;28;19952;-72
2023/05/15 07:34:44;;;;;;;;;;;;;;;18.05;49.79;101140.66;5044657;28;19927;-73
2023/05/15 07:37:09;;;;;;;;;;;;;;;18.36;50.95;101141.47;5058384;28;19944;-73
2023/05/15 07:39:35;;;;;;;;;;;;;;;18.36;48.51;101130.63;5058481;28;20030;-73
2023/05/15 07:42:00;;;;;;;;;;;;;;;18.72;48.27;101133.16;5047709;28;19941;-74
2023/05/15 07:44:26;;;;;;;;;;;;;;;18.73;47.43;101123.91;5056370;28;19961;-73
2023/05/15 07:46:51;;;;;;;;;;;;;;;18.89;46.58;101115.31;5060220;28;20303;-72
2023/05/15 07:49:17;;;;;;;;;;;;;;;18.95;45.83;101125.72;5056639;28;19958;-75
2023/05/15 07:51:42;;;;;;;;;;;;;;;19.05;44.83;101124.63;5043883;28;19936;-73
2023/05/15 07:54:10;;;;;;;;;;;;;;;19.27;45.60;101119.06;5059986;28;20327;-73
2023/05/15 07:56:37;;;;;;;;;;;;;;;19.30;43.56;101104.81;5041233;28;19936;-70
2023/05/15 07:59:03;;;;;;;;;;;;;;;19.11;43.09;101117.94;5041103;28;20371;-72
2023/05/15 08:01:28;;;;;;;;;;;;;;;19.66;43.82;101105.66;5057373;28;19938;-72
2023/05/15 08:03:54;;;;;;;;;;;;;;;19.32;43.67;101113.47;5058096;28;19949;-74
2023/05/15 08:06:19;;;;;;;;;;;;;;;19.68;43.37;101104.19;5052847;28;19956;-74
2023/05/15 08:08:45;;;;;;;;;;;;;;;20.17;43.58;101107.44;5063432;28;19956;-74
2023/05/15 08:11:10;;;;;;;;;;;;;;;20.29;42.60;101104.03;5044496;28;20027;-75
2023/05/15 08:13:36;;;;;;;;;;;;;;;20.47;40.17;101104.81;5059141;28;19955;-71
2023/05/15 08:16:02;;;;;;;;;;;;;;;20.21;39.84;101102.94;5058558;28;19934;-72
2023/05/15 08:18:27;;;;;;;;;;;;;;;20.56;40.99;101102.81;5057782;28;19941;-72
2023/05/15 08:20:53;;;;;;;;;;;;;;;20.40;40.10;101095.19;5061305;28;20594;-71
2023/05/15 08:23:19;;;;;;;;;;;;;;;20.59;39.47;101086.66;5061058;28;19947;-71
2023/05/15 08:25:44;;;;;;;;;;;;;;;20.83;38.37;101083.28;5060664;28;20330;-73
2023/05/15 08:28:09;;;;;;;;;;;;;;;20.62;39.39;101082.47;5044181;28;19959;-74
2023/05/15 08:30:35;;;;;;;;;;;;;;;21.03;40.37;101075.47;5057902;28;19945;-70
2023/05/15 08:33:00;;;;;;;;;;;;;;;20.76;40.12;101079.50;5052976;28;20603;-72
2023/05/15 08:35:26;;;;;;;;;;;;;;;21.08;37.07;101080.72;5059189;28;19933;-72
2023/05/15 08:37:52;;;;;;;;;;;;;;;21.24;37.73;101076.25;5063135;28;19940;-72
2023/05/15 08:40:18;;;;;;;;;;;;;;;21.41;37.69;101089.78;5056378;28;20023;-73
2023/05/15 08:42:46;;;;;;;;;;;;;;;21.77;39.47;101083.66;5056454;28;20059;-73
2023/05/15 08:45:12;;;;;;;;;;;;;;;21.35;36.50;101077.50;5062963;28;20595;-73
2023/05/15 08:47:40;;;;;;;;;;;;;;;21.12;36.70;101081.66;5038278;28;20052;-72
2023/05/15 08:50:11;;;;;;;;;;;;;;;21.52;38.43;101077.31;5069145;28;20405;-73
2023/05/15 08:52:37;;;;;;;;;;;;;;;21.42;36.25;101072.31;5066428;28;21394;-72
2023/05/15 08:55:03;;;;;;;;;;;;;;;21.48;35.47;101072.91;5066577;28;19934;-72
2023/05/15 08:57:31;;;;;;;;;;;;;;;21.40;35.66;101069.09;5056108;28;19942;-73
2023/05/15 08:59:57;;;;;;;;;;;;;;;21.47;35.39;101068.56;5063370;28;19933;-73
2023/05/15 09:02:24;;;;;;;;;;;;;;;21.46;38.84;101070.47;5054873;28;20041;-73
2023/05/15 09:04:50;;;;;;;;;;;;;;;21.69;35.87;101060.00;5049928;28;20039;-72
2023/05/15 09:07:16;;;;;;;;;;;;;;;22.23;38.64;101067.28;5059133;28;20023;-72
2023/05/15 09:09:43;;;;;;;;;;;;;;;22.26;35.94;101070.13;5056784;28;20040;-71
2023/05/15 09:12:15;;;;;;;;;;;;;;;22.18;34.14;101059.31;5054405;28;19946;-73
2023/05/15 09:14:41;;;;;;;;;;;;;;;22.17;36.43;101058.53;5051456;28;19961;-73
2023/05/15 09:17:09;;;;;;;;;;;;;;;22.27;35.47;101055.34;5059937;28;20039;-74
2023/05/15 09:19:37;;;;;;;;;;;;;;;22.64;39.29;101060.00;5047233;28;20407;-73
2023/05/15 09:22:16;;;;;;;;;;;;;;;22.50;37.18;101055.69;5057278;28;20444;-73
2023/05/15 09:24:42;;;;;;;;;;;;;;;23.07;36.47;101057.41;5045390;28;20049;-73
2023/05/15 09:27:07;;;;;;;;;;;;;;;22.59;35.58;101053.63;5042025;28;19970;-73
2023/05/15 09:29:34;;;;;;;;;;;;;;;22.66;34.92;101055.78;5040943;28;20432;-73
2023/05/15 09:32:04;;;;;;;;;;;;;;;22.44;35.19;101043.41;5059235;28;20658;-73
2023/05/15 09:34:34;;;;;;;;;;;;;;;22.59;35.02;101042.69;5055529;28;19941;-72
2023/05/15 09:37:00;;;;;;;;;;;;;;;22.85;36.85;101039.59;5054925;28;19942;-72
2023/05/15 09:39:26;;;;;;;;;;;;;;;22.87;34.63;101048.25;5054256;28;19937;-73
2023/05/15 09:41:52;;;;;;;;;;;;;;;22.79;36.94;101040.16;5059698;28;19974;-71
2023/05/15 09:44:19;;;;;;;;;;;;;;;22.90;35.30;101040.53;5045437;28;20409;-74
2023/05/15 09:46:46;;;;;;;;;;;;;;;22.92;35.73;101030.03;5044856;28;19956;-73
2023/05/15 09:49:11;;;;;;;;;;;;;;;22.83;39.08;101038.34;5045255;28;20043;-73
2023/05/15 09:51:37;;;;;;;;;;;;;;;22.72;35.80;101039.97;5060195;28;20065;-74
2023/05/15 09:54:03;;;;;;;;;;;;;;;23.09;37.18;101033.25;5060170;28;19950;-73
2023/05/15 09:56:31;;;;;;;;;;;;;;;23.03;36.41;101034.69;5059780;28;20388;-73
2023/05/15 09:59:00;;;;;;;;;;;;;;;23.04;33.49;101036.25;5061862;28;20395;-72
2023/05/15 10:01:26;;;;;;;;;;;;;;;22.98;38.53;101036.84;5050273;28;19935;-73
2023/05/15 10:04:02;;;;;;;;;;;;;;;23.07;34.69;101037.50;5064314;28;19969;-72
2023/05/15 10:06:41;;;;;;;;;;;;;;;23.33;35.18;101015.19;5059252;28;19937;-72
2023/05/15 10:09:07;;;;;;;;;;;;;;;23.27;33.75;101022.84;5058061;28;19973;-72
2023/05/15 10:11:35;;;;;;;;;;;;;;;23.22;33.70;101025.03;5060160;28;19934;-71
2023/05/15 10:14:01;;;;;;;;;;;;;;;23.61;33.65;101020.66;5060217;28;19965;-73
2023/05/15 10:16:27;;;;;;;;;;;;;;;23.22;32.16;101020.34;5059864;28;20354;-73
2023/05/15 10:18:55;;;;;;;;;;;;;;;23.41;33.23;101022.44;5039581;28;20391;-72
2023/05/15 10:21:21;;;;;;;;;;;;;;;23.83;34.50;101019.25;5040386;28;19939;-73
2023/05/15 10:23:49;;;;;;;;;;;;;;;24.10;32.39;101015.63;5060748;28;20633;-72
2023/05/15 10:26:23;;;;;;;;;;;;;;;24.74;32.16;101011.63;5047990;28;19931;-72
2023/05/15 10:28:49;;;;;;;;;;;;;;;24.06;32.18;101014.75;5054032;28;20045;-73
2023/05/15 10:31:15;;;;;;;;;;;;;;;24.23;31.99;101013.56;5056422;28;20006;-73
2023/05/15 10:33:42;;;;;;;;;;;;;;;23.45;31.54;101006.94;5057047;28;20514;-72
2023/05/15 10:36:09;;;;;;;;;;;;;;;23.69;31.72;101006.81;5045345;28;20426;-73
2023/05/15 10:38:34;;;;;;;;;;;;;;;24.31;30.93;101006.31;5057004;28;19939;-73
2023/05/15 10:41:00;;;;;;;;;;;;;;;24.47;33.02;100996.19;5059000;28;20285;-72
2023/05/15 10:43:27;;;;;;;;;;;;;;;24.32;30.85;100994.22;5055301;28;20023;-73
2023/05/15 10:45:53;;;;;;;;;;;;;;;24.62;30.54;100992.59;5030612;28;19955;-73
2023/05/15 10:48:18;;;;;;;;;;;;;;;25.24;33.28;100992.69;5045338;28;20314;-74
2023/05/15 10:50:46;;;;;;;;;;;;;;;24.70;29.01;100994.31;5045494;28;19943;-73
2023/05/15 10:53:12;;;;;;;;;;;;;;;25.62;29.35;100986.31;5060839;28;20380;-73
2023/05/15 10:55:37;;;;;;;;;;;;;;;24.88;31.38;100977.47;5046676;28;19986;-72
2023/05/15 10:58:09;;;;;;;;;;;;;;;23.91;34.91;100991.75;5064338;28;20654;-72
2023/05/15 11:00:42;;;;;;;;;;;;;;;22.61;33.46;100993.22;5058309;28;20426;-73
2023/05/15 11:03:12;;;;;;;;;;;;;;;22.39;34.82;100988.25;5029733;28;19973;-74
2023/05/15 11:05:56;;;;;;;;;;;;;;;21.93;38.53;100982.91;5043031;28;20016;-74
2023/05/15 11:08:25;;;;;;;;;;;;;;;21.66;39.59;100989.00;5055551;28;20794;-71
2023/05/15 11:10:52;;;;;;;;;;;;;;;21.36;37.48;100988.38;5045438;28;20372;-74
2023/05/15 11:13:17;;;;;;;;;;;;;;;21.55;34.68;100999.56;5057735;28;19952;-72
2023/05/15 11:15:44;;;;;;;;;;;;;;;21.63;39.08;100986.97;5040211;28;19938;-72
2023/05/15 11:18:09;;;;;;;;;;;;;;;21.51;36.74;100980.34;5040632;28;20048;-72
2023/05/15 11:20:39;;;;;;;;;;;;;;;21.56;37.84;100989.47;5042915;28;20042;-72
2023/05/15 11:23:05;;;;;;;;;;;;;;;21.28;36.90;100976.44;5044035;28;20035;-73
2023/05/15 11:25:31;;;;;;;;;;;;;;;21.34;38.16;100975.13;5043218;28;20021;-74
2023/05/15 11:27:56;;;;;;;;;;;;;;;21.13;44.31;100977.03;5062283;28;19960;-73
2023/05/15 11:30:23;;;;;;;;;;;;;;;21.02;39.19;100970.44;5054173;28;19985;-73
2023/05/15 11:32:50;;;;;;;;;;;;;;;20.64;38.16;100971.38;5043062;28;19947;-72
2023/05/15 11:35:32;;;;;;;;;;;;;;;20.70;42.89;100970.03;5059614;28;20021;-73
2023/05/15 11:38:02;;;;;;;;;;;;;;;20.71;39.75;100966.19;5062812;28;19938;-75
2023/05/15 11:40:29;;;;;;;;;;;;;;;20.67;39.27;100965.28;5044882;28;20024;-72
2023/05/15 11:43:02;;;;;;;;;;;;;;;20.75;38.98;100972.56;5057185;28;20035;-73
2023/05/15 11:45:29;;;;;;;;;;;;;;;20.79;39.57;100973.47;5063444;28;19938;-73
2023/05/15 11:47:56;;;;;;;;;;;;;;;20.76;37.98;100962.47;5061608;28;19951;-74
2023/05/15 11:50:22;;;;;;;;;;;;;;;20.94;39.63;100964.72;5058453;28;19941;-74
2023/05/15 11:52:48;;;;;;;;;;;;;;;20.98;36.13;100957.47;5057647;28;19955;-74
2023/05/15 11:55:14;;;;;;;;;;;;;;;21.08;38.93;100956.28;5057059;28;19934;-74
2023/05/15 11:57:39;;;;;;;;;;;;;;;21.27;37.45;100947.59;5077441;28;20138;-74
2023/05/15 12:00:05;;;;;;;;;;;;;;;21.55;37.22;100960.63;5063567;28;20413;-74
2023/05/15 12:02:31;;;;;;;;;;;;;;;21.89;41.53;100956.69;5060362;28;20313;-72
2023/05/15 12:04:56;;;;;;;;;;;;;;;21.45;36.67;100950.94;5057001;28;19936;-72
2023/05/15 12:07:22;;;;;;;;;;;;;;;21.65;40.25;100955.50;5057465;28;19934;-71
2023/05/15 12:09:51;;;;;;;;;;;;;;;21.63;39.13;100954.28;5063657;28;20424;-72
2023/05/15 12:12:17;;;;;;;;;;;;;;;21.90;39.60;100950.09;5028612;28;19953;-73
2023/05/15 12:14:42;;;;;;;;;;;;;;;21.94;41.14;100956.44;5062510;28;19937;-72
2023/05/15 12:17:08;;;;;;;;;;;;;;;21.72;35.91;100944.84;5055626;28;20730;-72
2023/05/15 12:19:34;;;;;;;;;;;;;;;22.00;36.83;100955.88;5070958;28;20428;-72
2023/05/15 12:22:00;;;;;;;;;;;;;;;21.88;40.81;100947.72;5057878;28;19943;-74
2023/05/15 12:24:25;;;;;;;;;;;;;;;21.80;38.44;100945.88;5041179;28;19937;-74
2023/05/15 12:26:51;;;;;;;;;;;;;;;21.52;37.48;100946.53;5048168;28;19958;-73
2023/05/15 12:29:17;;;;;;;;;;;;;;;21.62;36.81;100944.50;5058982;28;20417;-72
2023/05/15 12:31:43;;;;;;;;;;;;;;;21.59;43.45;100950.63;5059782;28;19984;-73
2023/05/15 12:34:09;;;;;;;;;;;;;;;21.38;38.46;100950.69;5061871;28;19957;-73
2023/05/15 12:36:34;;;;;;;;;;;;;;;21.33;42.09;100959.09;5054861;28;20308;-73
2023/05/15 12:39:04;;;;;;;;;;;;;;;21.05;37.53;100931.63;5062712;28;20030;-72